createdAt,value
2023-04-08T00:00:44.547Z,95459.78
2023-04-08T00:03:11.249Z,95460.84
2023-04-08T00:05:38.057Z,95460.06
2023-04-08T00:08:04.662Z,95464.63
2023-04-08T00:10:31.276Z,95468.44
2023-04-08T00:12:57.869Z,95467.03
2023-04-08T00:15:24.511Z,95476.44
2023-04-08T00:17:51.214Z,95478.84
2023-04-08T00:20:17.869Z,95482.84
2023-04-08T00:22:44.477Z,95481.50
2023-04-08T00:25:11.049Z,95481.22
2023-04-08T00:27:37.805Z,95473.91
2023-04-08T00:30:04.914Z,95475.53
2023-04-08T00:32:31.475Z,95474.75
2023-04-08T00:34:58.091Z,95472.84
2023-04-08T00:37:24.747Z,95483.91
2023-04-08T00:39:51.792Z,95472.34
2023-04-08T00:42:18.410Z,95473.69
2023-04-08T00:44:45.049Z,95484.47
2023-04-08T00:47:15.005Z,95476.97
2023-04-08T00:49:42.561Z,95471.84
2023-04-08T00:52:09.275Z,95476.72
2023-04-08T00:54:37.321Z,95479.44
2023-04-08T00:57:05.550Z,95481.06
2023-04-08T00:59:33.079Z,95482.69
2023-04-08T01:02:07.908Z,95479.47
2023-04-08T01:04:37.521Z,95481.34
2023-04-08T01:07:25.311Z,95483.81
2023-04-08T01:09:53.032Z,95476.88
2023-04-08T01:12:27.338Z,95477.38
2023-04-08T01:15:00.440Z,95475.78
2023-04-08T01:17:27.640Z,95476.88
2023-04-08T01:19:56.237Z,95481.75
2023-04-08T01:22:34.579Z,95483.66
2023-04-08T01:25:06.260Z,95478.53
2023-04-08T01:27:33.232Z,95482.59
2023-04-08T01:30:03.482Z,95487.19
2023-04-08T01:32:32.107Z,95479.91
2023-04-08T01:35:00.934Z,95485.56
2023-04-08T01:37:30.434Z,95477.50
2023-04-08T01:39:59.066Z,95482.06
2023-04-08T01:42:28.722Z,95482.88
2023-04-08T01:44:57.584Z,95490.44
2023-04-08T01:47:25.830Z,95481.25
2023-04-08T01:49:53.639Z,95479.66
2023-04-08T01:52:21.963Z,95486.13
2023-04-08T01:54:48.836Z,95480.75
2023-04-08T01:57:23.628Z,95484.50
2023-04-08T02:00:00.729Z,95486.91
2023-04-08T02:02:28.331Z,95486.63
2023-04-08T02:04:55.412Z,95486.91
2023-04-08T02:07:22.450Z,95480.75
2023-04-08T02:09:50.741Z,95485.84
2023-04-08T02:12:17.480Z,95486.97
2023-04-08T02:14:44.441Z,95484.78
2023-04-08T02:17:21.332Z,95487.97
2023-04-08T02:20:11.387Z,95487.69
2023-04-08T02:22:44.830Z,95486.63
2023-04-08T02:25:16.711Z,95486.06
2023-04-08T02:27:45.771Z,95487.06
2023-04-08T02:30:13.657Z,95481.69
2023-04-08T02:32:42.031Z,95489.72
2023-04-08T02:35:09.456Z,95486.00
2023-04-08T02:37:36.534Z,95489.97
2023-04-08T02:40:03.551Z,95481.03
2023-04-08T02:42:30.536Z,95482.34
2023-04-08T02:44:57.600Z,95480.69
2023-04-08T02:47:24.399Z,95478.78
2023-04-08T02:49:51.694Z,95472.84
2023-04-08T02:52:19.088Z,95479.28
2023-04-08T02:54:45.843Z,95484.38
2023-04-08T02:57:12.405Z,95477.59
2023-04-08T02:59:39.128Z,95473.53
2023-04-08T03:02:05.895Z,95478.66
2023-04-08T03:04:32.518Z,95478.66
2023-04-08T03:06:59.075Z,95482.66
2023-04-08T03:09:25.719Z,95479.16
2023-04-08T03:11:52.366Z,95474.81
2023-04-08T03:14:18.973Z,95475.31
2023-04-08T03:16:45.583Z,95479.63
2023-04-08T03:19:12.200Z,95485.53
2023-04-08T03:21:39.066Z,95494.41
2023-04-08T03:24:05.913Z,95492.50
2023-04-08T03:26:32.567Z,95487.13
2023-04-08T03:28:59.192Z,95496.53
2023-04-08T03:31:26.269Z,95488.66
2023-04-08T03:33:52.924Z,95493.28
2023-04-08T03:36:19.589Z,95493.28
2023-04-08T03:38:46.168Z,95501.34
2023-04-08T03:41:12.888Z,95504.56
2023-04-08T03:43:39.563Z,95504.28
2023-04-08T03:46:06.212Z,95502.41
2023-04-08T03:48:32.919Z,95498.59
2023-04-08T03:50:59.557Z,95498.59
2023-04-08T03:53:26.171Z,95502.13
2023-04-08T03:55:52.745Z,95504.28
2023-04-08T03:58:19.327Z,95508.06
2023-04-08T04:00:45.935Z,95510.78
2023-04-08T04:03:12.764Z,95514.53
2023-04-08T04:05:40.422Z,95515.63
2023-04-08T04:08:07.327Z,95518.31
2023-04-08T04:10:33.967Z,95522.91
2023-04-08T04:13:00.549Z,95522.13
2023-04-08T04:15:27.457Z,95524.81
2023-04-08T04:17:54.154Z,95525.63
2023-04-08T04:20:20.991Z,95524.53
2023-04-08T04:22:47.609Z,95529.09
2023-04-08T04:25:14.203Z,95531.50
2023-04-08T04:27:40.811Z,95526.13
2023-04-08T04:30:08.104Z,95527.47
2023-04-08T04:32:34.767Z,95531.47
2023-04-08T04:35:01.612Z,95533.59
2023-04-08T04:37:28.250Z,95537.59
2023-04-08T04:39:54.791Z,95533.53
2023-04-08T04:42:21.346Z,95536.47
2023-04-08T04:44:48.002Z,95542.91
2023-04-08T04:47:14.668Z,95536.13
2023-04-08T04:49:41.259Z,95541.72
2023-04-08T04:52:07.903Z,95545.47
2023-04-08T04:54:34.497Z,95549.50
2023-04-08T04:57:01.195Z,95545.41
2023-04-08T04:59:27.836Z,95544.03
2023-04-08T05:01:54.848Z,95542.66
2023-04-08T05:04:21.569Z,95549.34
2023-04-08T05:06:48.319Z,95548.50
2023-04-08T05:09:14.943Z,95548.50
2023-04-08T05:11:41.549Z,95547.91
2023-04-08T05:14:08.129Z,95557.06
2023-04-08T05:16:35.195Z,95557.28
2023-04-08T05:19:04.584Z,95546.97
2023-04-08T05:21:31.323Z,95549.41
2023-04-08T05:23:58.085Z,95542.34
2023-04-08T05:26:24.676Z,95555.25
2023-04-08T05:28:51.703Z,95545.75
2023-04-08T05:31:19.952Z,95549.28
2023-04-08T05:33:47.043Z,95548.69
2023-04-08T05:36:14.475Z,95548.38
2023-04-08T05:38:41.763Z,95554.31
2023-04-08T05:41:08.353Z,95553.72
2023-04-08T05:43:35.642Z,95544.53
2023-04-08T05:46:09.473Z,95544.22
2023-04-08T05:48:36.465Z,95557.16
2023-04-08T05:51:03.155Z,95549.88
2023-04-08T05:53:29.805Z,95551.66
2023-04-08T05:55:56.599Z,95549.22
2023-04-08T05:58:23.295Z,95548.63
2023-04-08T06:00:49.871Z,95559.66
2023-04-08T06:03:19.719Z,95567.44
2023-04-08T06:05:47.293Z,95559.28
2023-04-08T06:08:13.911Z,95559.78
2023-04-08T06:10:40.658Z,95563.78
2023-04-08T06:13:07.655Z,95572.94
2023-04-08T06:15:34.328Z,95573.44
2023-04-08T06:18:00.970Z,95565.25
2023-04-08T06:20:27.648Z,95571.69
2023-04-08T06:22:54.368Z,95573.81
2023-04-08T06:25:20.948Z,95571.09
2023-04-08T06:27:47.581Z,95582.91
2023-04-08T06:30:14.247Z,95582.34
2023-04-08T06:32:40.915Z,95577.47
2023-04-08T06:35:07.976Z,95576.84
2023-04-08T06:37:34.641Z,95581.47
2023-04-08T06:40:01.296Z,95586.28
2023-04-08T06:42:27.856Z,95586.50
2023-04-08T06:45:06.876Z,95584.63
2023-04-08T06:47:33.642Z,95590.31
2023-04-08T06:50:00.410Z,95592.13
2023-04-08T06:52:27.015Z,95590.94
2023-04-08T06:54:53.596Z,95591.16
2023-04-08T06:57:20.147Z,95598.09
2023-04-08T06:59:46.777Z,95593.69
2023-04-08T07:02:13.577Z,95599.00
2023-04-08T07:04:40.204Z,95594.63
2023-04-08T07:07:06.950Z,95592.06
2023-04-08T07:09:33.531Z,95588.44
2023-04-08T07:12:00.129Z,95593.09
2023-04-08T07:14:26.740Z,95593.09
2023-04-08T07:16:53.342Z,95592.50
2023-04-08T07:19:19.977Z,95601.81
2023-04-08T07:21:46.553Z,95604.44
2023-04-08T07:24:13.139Z,95604.94
2023-04-08T07:26:39.764Z,95599.72
2023-04-08T07:29:06.378Z,95606.34
2023-04-08T07:31:33.357Z,95605.44
2023-04-08T07:34:00.044Z,95608.16
2023-04-08T07:36:26.739Z,95622.69
2023-04-08T07:38:53.327Z,95603.25
2023-04-08T07:41:20.205Z,95614.38
2023-04-08T07:43:47.304Z,95619.88
2023-04-08T07:46:14.002Z,95620.47
2023-04-08T07:48:40.667Z,95623.91
2023-04-08T07:51:11.036Z,95615.47
2023-04-08T07:53:39.673Z,95627.38
2023-04-08T07:56:13.989Z,95631.38
2023-04-08T07:58:40.853Z,95634.28
2023-04-08T08:01:21.458Z,95632.13
2023-04-08T08:03:49.776Z,95630.88
2023-04-08T08:06:16.675Z,95635.72
2023-04-08T08:08:43.601Z,95624.56
2023-04-08T08:11:10.309Z,95628.44
2023-04-08T08:13:38.178Z,95636.91
2023-04-08T08:16:04.936Z,95640.72
2023-04-08T08:18:31.607Z,95636.94
2023-04-08T08:20:58.185Z,95642.31
2023-04-08T08:23:24.769Z,95636.91
2023-04-08T08:25:59.735Z,95644.50
2023-04-08T08:28:27.026Z,95633.22
2023-04-08T08:30:53.737Z,95641.38
2023-04-08T08:33:20.639Z,95644.75
2023-04-08T08:35:47.256Z,95643.75
2023-04-08T08:38:13.865Z,95644.91
2023-04-08T08:40:40.574Z,95654.66
2023-04-08T08:43:07.364Z,95651.44
2023-04-08T08:45:33.928Z,95644.22
2023-04-08T08:48:00.749Z,95653.41
2023-04-08T08:50:28.074Z,95652.81
2023-04-08T08:52:54.680Z,95653.13
2023-04-08T08:55:39.375Z,95661.28
2023-04-08T08:58:08.685Z,95657.28
2023-04-08T09:00:36.544Z,95656.84
2023-04-08T09:03:23.198Z,95657.28
2023-04-08T09:05:58.172Z,95653.50
2023-04-08T09:08:35.970Z,95650.81
2023-04-08T09:11:18.551Z,95668.69
2023-04-08T09:13:46.631Z,95667.06
2023-04-08T09:16:17.548Z,95674.03
2023-04-08T09:18:45.741Z,95671.75
2023-04-08T09:21:14.374Z,95672.59
2023-04-08T09:23:48.272Z,95667.81
2023-04-08T09:26:19.974Z,95668.06
2023-04-08T09:29:11.045Z,95674.13
2023-04-08T09:31:45.366Z,95674.75
2023-04-08T09:34:14.216Z,95672.34
2023-04-08T09:36:41.124Z,95667.50
2023-04-08T09:39:07.698Z,95665.38
2023-04-08T09:41:35.737Z,95665.47
2023-04-08T09:44:07.757Z,95672.56
2023-04-08T09:46:49.505Z,95673.84
2023-04-08T09:49:33.891Z,95678.47
2023-04-08T09:52:18.818Z,95673.06
2023-04-08T09:55:05.193Z,95672.75
2023-04-08T09:57:40.418Z,95682.19
2023-04-08T10:00:13.554Z,95675.09
2023-04-08T10:03:06.666Z,95675.03
2023-04-08T10:05:37.608Z,95672.34
2023-04-08T10:08:06.040Z,95678.19
2023-04-08T10:10:35.159Z,95677.84
2023-04-08T10:13:02.342Z,95669.94
2023-04-08T10:15:33.619Z,95678.16
2023-04-08T10:18:02.981Z,95668.81
2023-04-08T10:20:35.726Z,95669.19
2023-04-08T10:23:05.766Z,95667.63
2023-04-08T10:25:39.781Z,95671.97
2023-04-08T10:28:15.470Z,95672.81
2023-04-08T10:30:51.990Z,95667.25
2023-04-08T10:33:31.195Z,95653.81
2023-04-08T10:36:08.062Z,95664.66
2023-04-08T10:38:34.864Z,95664.06
2023-04-08T10:41:01.745Z,95655.94
2023-04-08T10:43:33.565Z,95659.16
2023-04-08T10:46:00.409Z,95656.47
2023-04-08T10:48:27.036Z,95666.28
2023-04-08T10:51:01.460Z,95656.03
2023-04-08T10:53:35.810Z,95665.34
2023-04-08T10:56:06.062Z,95663.22
2023-04-08T10:58:33.585Z,95664.06
2023-04-08T11:01:07.891Z,95666.81
2023-04-08T11:03:36.316Z,95668.22
2023-04-08T11:06:03.696Z,95669.13
2023-04-08T11:08:34.523Z,95672.75
2023-04-08T11:11:01.844Z,95669.03
2023-04-08T11:13:28.771Z,95679.16
2023-04-08T11:15:56.891Z,95672.13
2023-04-08T11:18:23.570Z,95678.25
2023-04-08T11:20:53.357Z,95683.69
2023-04-08T11:23:20.241Z,95683.38
2023-04-08T11:25:47.353Z,95680.47
2023-04-08T11:28:14.677Z,95693.31
2023-04-08T11:30:42.116Z,95687.63
2023-04-08T11:33:09.136Z,95684.13
2023-04-08T11:35:40.258Z,95698.81
2023-04-08T11:38:08.097Z,95681.84
2023-04-08T11:40:34.790Z,95682.66
2023-04-08T11:43:10.066Z,95691.47
2023-04-08T11:45:40.396Z,95681.22
2023-04-08T11:48:14.571Z,95681.63
2023-04-08T11:50:42.680Z,95685.78
2023-04-08T11:53:22.456Z,95678.94
2023-04-08T11:55:49.288Z,95690.88
2023-04-08T11:58:15.928Z,95684.00
2023-04-08T12:00:42.826Z,95692.03
2023-04-08T12:03:10.358Z,95685.38
2023-04-08T12:05:37.168Z,95699.47
2023-04-08T12:08:03.865Z,95698.44
2023-04-08T12:10:30.540Z,95698.16
2023-04-08T12:12:57.130Z,95697.94
2023-04-08T12:15:23.832Z,95701.75
2023-04-08T12:17:50.448Z,95702.78
2023-04-08T12:20:17.144Z,95710.38
2023-04-08T12:22:43.765Z,95703.34
2023-04-08T12:25:10.674Z,95704.81
2023-04-08T12:27:37.309Z,95700.28
2023-04-08T12:30:05.087Z,95713.22
2023-04-08T12:32:31.838Z,95703.16
2023-04-08T12:34:58.494Z,95709.94
2023-04-08T12:37:25.099Z,95716.47
2023-04-08T12:39:51.687Z,95708.78
2023-04-08T12:42:18.328Z,95713.75
2023-04-08T12:44:44.892Z,95717.91
2023-04-08T12:47:11.533Z,95717.97
2023-04-08T12:52:07.747Z,95716.97
2023-04-08T12:54:34.311Z,95717.34
2023-04-08T12:57:00.972Z,95720.38
2023-04-08T12:59:27.531Z,95720.94
2023-04-08T13:01:54.215Z,95718.81
2023-04-08T13:04:20.943Z,95713.19
2023-04-08T13:06:47.532Z,95728.09
2023-04-08T13:09:14.084Z,95731.31
2023-04-08T13:11:40.779Z,95724.59
2023-04-08T13:14:07.332Z,95725.44
2023-04-08T13:16:34.140Z,95726.31
2023-04-08T13:19:00.824Z,95727.41
2023-04-08T13:21:27.770Z,95730.84
2023-04-08T13:23:54.378Z,95725.44
2023-04-08T13:26:21.026Z,95730.41
2023-04-08T13:28:56.592Z,95738.56
2023-04-08T13:31:24.764Z,95740.50
2023-04-08T13:33:51.514Z,95735.66
2023-04-08T13:36:18.167Z,95738.66
2023-04-08T13:38:44.782Z,95734.34
2023-04-08T13:41:11.524Z,95739.75
2023-04-08T13:43:38.063Z,95738.44
2023-04-08T13:46:04.854Z,95745.13
2023-04-08T13:48:31.572Z,95742.50
2023-04-08T13:50:58.146Z,95738.66
2023-04-08T13:53:24.757Z,95745.69
2023-04-08T13:55:51.307Z,95752.16
2023-04-08T13:58:23.814Z,95748.94
2023-04-08T14:00:51.913Z,95748.72
2023-04-08T14:03:19.252Z,95746.31
2023-04-08T14:05:46.289Z,95754.63
2023-04-08T14:08:12.831Z,95753.78
2023-04-08T14:10:39.666Z,95749.44
2023-04-08T14:13:06.248Z,95747.84
2023-04-08T14:15:33.089Z,95755.41
2023-04-08T14:17:59.785Z,95751.13
2023-04-08T14:20:26.457Z,95749.00
2023-04-08T14:22:53.021Z,95763.00
2023-04-08T14:25:19.608Z,95760.81
2023-04-08T14:27:57.200Z,95761.94
2023-04-08T14:30:25.468Z,95761.63
2023-04-08T14:32:52.120Z,95756.97
2023-04-08T14:35:19.045Z,95766.06
2023-04-08T14:37:45.729Z,95769.28
2023-04-08T14:40:12.642Z,95766.28
2023-04-08T14:42:39.256Z,95769.22
2023-04-08T14:45:06.383Z,95767.84
2023-04-08T14:47:33.025Z,95773.25
2023-04-08T14:49:59.689Z,95768.91
2023-04-08T14:52:26.494Z,95771.03
2023-04-08T14:54:53.179Z,95768.00
2023-04-08T14:57:19.808Z,95768.56
2023-04-08T14:59:46.418Z,95771.47
2023-04-08T15:02:13.206Z,95774.69
2023-04-08T15:04:39.972Z,95772.22
2023-04-08T15:07:06.656Z,95771.66
2023-04-08T15:09:33.510Z,95776.47
2023-04-08T15:12:00.144Z,95779.69
2023-04-08T15:14:27.515Z,95779.13
2023-04-08T15:16:54.209Z,95781.00
2023-04-08T15:19:21.060Z,95787.72
2023-04-08T15:21:47.789Z,95788.25
2023-04-08T15:24:14.449Z,95786.09
2023-04-08T15:26:41.219Z,95787.97
2023-04-08T15:29:07.979Z,95792.00
2023-04-08T15:31:34.774Z,95800.13
2023-04-08T15:34:01.497Z,95793.63
2023-04-08T15:36:30.024Z,95799.84
2023-04-08T15:38:56.879Z,95790.94
2023-04-08T15:41:23.575Z,95798.22
2023-04-08T15:43:50.206Z,95798.22
2023-04-08T15:46:23.744Z,95794.72
2023-04-08T15:48:51.034Z,95797.41
2023-04-08T15:51:18.020Z,95796.34
2023-04-08T15:53:44.721Z,95792.84
2023-04-08T15:56:15.075Z,95797.75
2023-04-08T15:58:42.381Z,95799.13
2023-04-08T16:01:09.423Z,95797.28
2023-04-08T16:03:36.171Z,95797.06
2023-04-08T16:06:03.054Z,95804.94
2023-04-08T16:08:29.996Z,95803.59
2023-04-08T16:11:00.550Z,95803.38
2023-04-08T16:13:27.191Z,95811.47
2023-04-08T16:15:53.847Z,95806.34
2023-04-08T16:18:20.507Z,95812.84
2023-04-08T16:20:47.097Z,95819.63
2023-04-08T16:23:13.851Z,95818.81
2023-04-08T16:25:40.502Z,95816.41
2023-04-08T16:28:07.210Z,95828.31
2023-04-08T16:30:33.897Z,95828.88
2023-04-08T16:33:00.507Z,95817.25
2023-04-08T16:35:27.169Z,95822.66
2023-04-08T16:37:53.699Z,95826.97
2023-04-08T16:40:20.262Z,95827.50
2023-04-08T16:42:46.970Z,95825.31
2023-04-08T16:45:14.106Z,95828.53
2023-04-08T16:47:40.844Z,95827.97
2023-04-08T16:50:10.706Z,95831.97
2023-04-08T16:52:37.455Z,95831.69
2023-04-08T16:55:04.214Z,95826.53
2023-04-08T16:57:30.791Z,95828.66
2023-04-08T16:59:57.558Z,95831.09
2023-04-08T17:02:24.320Z,95830.50
2023-04-08T17:04:51.098Z,95828.31
2023-04-08T17:07:17.733Z,95835.56
2023-04-08T17:09:44.390Z,95842.28
2023-04-08T17:12:10.997Z,95844.97
2023-04-08T17:14:37.578Z,95839.31
2023-04-08T17:17:04.161Z,95841.72
2023-04-08T17:19:30.711Z,95844.97
2023-04-08T17:21:57.276Z,95844.72
2023-04-08T17:24:23.918Z,95843.94
2023-04-08T17:26:50.535Z,95848.78
2023-04-08T17:29:17.087Z,95855.28
2023-04-08T17:31:43.858Z,95854.19
2023-04-08T17:34:10.485Z,95850.16
2023-04-08T17:36:37.131Z,95852.91
2023-04-08T17:39:03.714Z,95863.22
2023-04-08T17:41:39.721Z,95859.19
2023-04-08T17:44:07.393Z,95867.56
2023-04-08T17:46:34.034Z,95876.47
2023-04-08T17:49:00.660Z,95871.88
2023-04-08T17:51:27.296Z,95879.16
2023-04-08T17:53:53.912Z,95872.97
2023-04-08T17:56:20.485Z,95879.16
2023-04-08T17:58:47.064Z,95869.47
2023-04-08T18:01:13.757Z,95882.97
2023-04-08T18:03:40.478Z,95891.88
2023-04-08T18:06:08.114Z,95879.47
2023-04-08T18:08:34.926Z,95888.38
2023-04-08T18:11:07.807Z,95895.38
2023-04-08T18:13:34.407Z,95901.03
2023-04-08T18:16:00.975Z,95894.81
2023-04-08T18:18:27.737Z,95901.84
2023-04-08T18:20:54.376Z,95904.53
2023-04-08T18:23:21.019Z,95906.94
2023-04-08T18:25:47.853Z,95909.66
2023-04-08T18:28:14.427Z,95911.78
2023-04-08T18:30:41.340Z,95915.28
2023-04-08T18:33:08.034Z,95920.41
2023-04-08T18:35:34.730Z,95923.91
2023-04-08T18:38:01.295Z,95925.53
2023-04-08T18:40:28.114Z,95923.09
2023-04-08T18:42:54.806Z,95934.13
2023-04-08T18:45:21.495Z,95933.88
2023-04-08T18:47:48.096Z,95927.69
2023-04-08T18:50:14.707Z,95934.13
2023-04-08T18:52:41.337Z,95942.81
2023-04-08T18:55:08.040Z,95943.94
2023-04-08T18:57:34.766Z,95947.19
2023-04-08T19:00:01.356Z,95945.00
2023-04-08T19:02:28.082Z,95948.50
2023-04-08T19:04:54.720Z,95950.97
2023-04-08T19:07:21.391Z,95953.97
2023-04-08T19:09:48.119Z,95952.38
2023-04-08T19:12:15.219Z,95962.34
2023-04-08T19:14:41.792Z,95964.53
2023-04-08T19:17:08.410Z,95959.69
2023-04-08T19:19:35.175Z,95961.31
2023-04-08T19:22:01.977Z,95964.81
2023-04-08T19:24:28.521Z,95965.09
2023-04-08T19:26:55.073Z,95964.59
2023-04-08T19:29:21.860Z,95961.34
2023-04-08T19:31:48.463Z,95970.81
2023-04-08T19:34:15.076Z,95969.22
2023-04-08T19:36:41.681Z,95971.63
2023-04-08T19:39:08.291Z,95973.53
2023-04-08T19:41:34.996Z,95975.44
2023-04-08T19:44:01.622Z,95983.03
2023-04-08T19:46:29.080Z,95986.31
2023-04-08T19:48:55.711Z,95983.88
2023-04-08T19:51:22.344Z,95979.84
2023-04-08T19:53:49.265Z,95988.75
2023-04-08T19:56:16.758Z,95986.59
2023-04-08T19:58:43.323Z,95982.25
2023-04-08T20:01:09.972Z,95979.28
2023-04-08T20:03:36.747Z,95979.84
2023-04-08T20:06:03.421Z,95982.03
2023-04-08T20:08:32.940Z,95982.81
2023-04-08T20:10:59.500Z,95980.41
2023-04-08T20:13:26.126Z,95985.81
2023-04-08T20:15:52.934Z,95979.03
2023-04-08T20:18:19.686Z,95983.09
2023-04-08T20:20:46.295Z,95985.28
2023-04-08T20:23:12.879Z,95987.97
2023-04-08T20:25:39.600Z,95984.75
2023-04-08T20:28:06.201Z,95987.75
2023-04-08T20:30:32.758Z,95984.81
2023-04-08T20:32:59.402Z,95982.09
2023-04-08T20:35:26.364Z,95986.69
2023-04-08T20:37:52.957Z,95981.28
2023-04-08T20:40:19.684Z,95982.09
2023-04-08T20:42:46.466Z,95983.69
2023-04-08T20:45:13.120Z,95986.13
2023-04-08T20:47:39.774Z,95983.69
2023-04-08T20:50:07.192Z,95984.53
2023-04-08T20:52:33.826Z,95987.50
2023-04-08T20:55:00.686Z,95983.69
2023-04-08T20:57:27.247Z,95994.50
2023-04-08T20:59:53.849Z,95992.34
2023-04-08T21:02:20.490Z,95998.53
2023-04-08T21:04:47.779Z,95997.75
2023-04-08T21:07:14.489Z,95994.22
2023-04-08T21:09:41.034Z,95997.19
2023-04-08T21:12:07.649Z,95995.59
2023-04-08T21:14:34.167Z,96002.63
2023-04-08T21:17:00.893Z,96001.03
2023-04-08T21:19:27.552Z,95995.09
2023-04-08T21:21:54.185Z,96003.47
2023-04-08T21:24:20.811Z,96005.38
2023-04-08T21:26:47.366Z,96001.84
2023-04-08T21:29:14.069Z,96002.16
2023-04-08T21:31:40.637Z,96003.75
2023-04-08T21:34:07.293Z,96002.44
2023-04-08T21:36:34.033Z,96006.44
2023-04-08T21:39:00.648Z,96002.16
2023-04-08T21:41:28.445Z,96004.03
2023-04-08T21:43:56.887Z,96003.22
2023-04-08T21:46:23.725Z,95998.41
2023-04-08T21:48:50.606Z,95998.13
2023-04-08T21:51:17.575Z,96006.50
2023-04-08T21:53:44.721Z,96006.50
2023-04-08T21:56:11.280Z,96009.75
2023-04-08T21:58:37.823Z,96000.84
2023-04-08T22:01:04.577Z,96000.03
2023-04-08T22:03:31.293Z,96007.59
2023-04-08T22:05:58.061Z,96010.31
2023-04-08T22:08:24.729Z,96004.38
2023-04-08T22:10:51.297Z,96011.94
2023-04-08T22:13:17.906Z,96007.13
2023-04-08T22:15:44.460Z,96011.44
2023-04-08T22:18:11.040Z,96001.22
2023-04-08T22:20:37.598Z,96006.34
2023-04-08T22:23:04.178Z,96004.50
2023-04-08T22:25:30.771Z,95999.13
2023-04-08T22:27:57.418Z,95999.94
2023-04-08T22:30:24.134Z,95999.94
2023-04-08T22:32:50.713Z,96001.88
2023-04-08T22:35:17.348Z,96003.78
2023-04-08T22:37:43.947Z,95999.47
2023-04-08T22:40:10.679Z,96003.03
2023-04-08T22:42:37.276Z,96007.63
2023-04-08T22:45:04.096Z,96010.34
2023-04-08T22:47:30.695Z,96016.03
2023-04-08T22:49:57.828Z,96014.13
2023-04-08T22:52:24.443Z,96012.25
2023-04-08T22:54:50.998Z,96014.97
2023-04-08T22:57:17.608Z,96013.09
2023-04-08T22:59:44.152Z,96005.00
2023-04-08T23:02:10.779Z,96011.75
2023-04-08T23:04:37.389Z,96011.47
2023-04-08T23:07:03.934Z,96013.38
2023-04-08T23:09:30.511Z,96018.50
2023-04-08T23:11:57.096Z,96019.06
2023-04-08T23:14:23.948Z,96028.47
2023-04-08T23:16:50.768Z,96020.94
2023-04-08T23:19:17.348Z,96024.16
2023-04-08T23:21:43.911Z,96028.75
2023-04-08T23:24:10.639Z,96026.59
2023-04-08T23:26:37.271Z,96027.66
2023-04-08T23:29:03.939Z,96029.56
2023-04-08T23:31:30.688Z,96029.56
2023-04-08T23:33:57.341Z,96023.38
2023-04-08T23:36:24.002Z,96024.69
2023-04-08T23:38:50.719Z,96028.47
2023-04-08T23:41:17.550Z,96028.47
2023-04-08T23:43:44.185Z,96025.78
2023-04-08T23:46:10.874Z,96023.06
2023-04-08T23:48:37.562Z,96028.47
2023-04-08T23:51:04.448Z,96024.16
2023-04-08T23:53:31.136Z,96021.47
2023-04-08T23:56:05.152Z,96018.78
2023-04-08T23:58:32.065Z,96017.69
